createdAt,value
2019-01-30T00:00:01.702Z,86.36
2019-01-30T00:05:01.972Z,86.11
2019-01-30T00:10:01.241Z,85.5
2019-01-30T00:15:01.480Z,85.5
2019-01-30T00:20:01.784Z,85.46
2019-01-30T00:25:02.060Z,85.38
2019-01-30T00:30:04.573Z,85.43
2019-01-30T00:35:01.899Z,85.21
2019-01-30T00:40:02.144Z,84.88
2019-01-30T00:45:01.446Z,84.77
2019-01-30T00:50:01.744Z,84.74
2019-01-30T00:55:02.029Z,84.56
2019-01-30T01:00:01.298Z,84.44
2019-01-30T01:05:01.628Z,84.38
2019-01-30T01:10:01.899Z,84.51
2019-01-30T01:15:02.131Z,84.6
2019-01-30T01:20:01.392Z,84.34
2019-01-30T01:25:01.694Z,84.25
2019-01-30T01:30:01.973Z,84.28
2019-01-30T01:35:01.303Z,84.11
2019-01-30T01:40:01.710Z,84.21
2019-01-30T01:45:02.041Z,84.02
2019-01-30T01:50:01.352Z,83.63
2019-01-30T01:55:01.688Z,83.58
2019-01-30T02:00:01.990Z,83.36
2019-01-30T02:05:01.554Z,83.34
2019-01-30T02:10:01.838Z,83.32
2019-01-30T02:15:02.093Z,83.16
2019-01-30T02:20:01.395Z,82.7
2019-01-30T02:25:01.676Z,82.63
2019-01-30T02:30:01.940Z,82.59
2019-01-30T02:35:01.236Z,82.25
2019-01-30T02:40:01.558Z,82.09
2019-01-30T02:45:01.854Z,82.15
2019-01-30T02:50:02.112Z,81.86
2019-01-30T02:55:01.356Z,81.93
2019-01-30T03:00:01.747Z,81.63
2019-01-30T03:05:02.040Z,81.47
2019-01-30T03:10:01.304Z,81.67
2019-01-30T03:15:01.597Z,81.57
2019-01-30T03:20:01.946Z,82.01
2019-01-30T03:25:01.970Z,81.77
2019-01-30T03:30:01.213Z,81.74
2019-01-30T03:35:01.540Z,81.72
2019-01-30T03:40:01.677Z,81.35
2019-01-30T03:45:01.961Z,81.25
2019-01-30T03:50:01.222Z,81.23
2019-01-30T03:55:01.494Z,80.61
2019-01-30T04:00:01.789Z,80.4
2019-01-30T04:05:02.111Z,80.93
2019-01-30T04:10:01.398Z,80.83
2019-01-30T04:15:01.745Z,80.77
2019-01-30T04:20:02.117Z,80.68
2019-01-30T04:25:01.505Z,81.01
2019-01-30T04:30:01.779Z,80.77
2019-01-30T04:35:02.105Z,79.9
2019-01-30T04:40:01.391Z,79.92
2019-01-30T04:45:01.682Z,79.73
2019-01-30T04:50:01.329Z,79.74
2019-01-30T04:55:01.670Z,79.82
2019-01-30T05:00:01.982Z,79.63
2019-01-30T05:05:01.285Z,79.38
2019-01-30T05:10:01.592Z,79.51
2019-01-30T05:15:01.926Z,79.31
2019-01-30T05:20:01.241Z,79.17
2019-01-30T05:25:01.510Z,79.09
2019-01-30T05:30:01.746Z,79.02
2019-01-30T05:35:02.111Z,78.9
2019-01-30T05:40:01.507Z,79.09
2019-01-30T05:45:01.794Z,78.8
2019-01-30T05:50:02.055Z,78.61
2019-01-30T05:55:01.346Z,78.86
2019-01-30T06:00:01.610Z,79.8
2019-01-30T06:05:01.916Z,80.82
2019-01-30T06:10:01.248Z,81.38
2019-01-30T06:15:01.535Z,81.4
2019-01-30T06:20:01.844Z,81.77
2019-01-30T06:25:02.126Z,81.79
2019-01-30T06:30:01.405Z,83.07
2019-01-30T06:35:01.732Z,84.39
2019-01-30T06:40:02.035Z,84.67
2019-01-30T06:45:01.326Z,84.5
2019-01-30T06:50:01.615Z,85.15
2019-01-30T06:55:01.887Z,85.88
2019-01-30T07:00:02.161Z,86.69
2019-01-30T07:05:01.455Z,88.23
2019-01-30T07:10:01.724Z,89.48
2019-01-30T07:15:02.002Z,90.73
2019-01-30T07:20:01.277Z,91.35
2019-01-30T07:25:01.575Z,92.19
2019-01-30T07:30:01.855Z,92.52
2019-01-30T07:35:02.139Z,92.68
2019-01-30T07:40:01.410Z,92.86
2019-01-30T07:45:01.711Z,93.25
2019-01-30T07:50:01.995Z,93.35
2019-01-30T07:55:01.361Z,94.04
2019-01-30T08:00:01.651Z,94.92
2019-01-30T08:05:01.934Z,95.38
2019-01-30T08:10:01.194Z,95.51
2019-01-30T08:15:01.486Z,96.15
2019-01-30T08:20:01.780Z,96.38
2019-01-30T08:25:02.568Z,96.59
2019-01-30T08:30:02.549Z,96.7
2019-01-30T08:35:01.923Z,96.56
2019-01-30T08:40:01.287Z,95.71
2019-01-30T08:45:01.548Z,95.38
2019-01-30T08:50:01.834Z,94.66
2019-01-30T08:55:02.104Z,94.89
2019-01-30T09:00:01.362Z,95.01
2019-01-30T09:05:01.660Z,94.48
2019-01-30T09:10:01.969Z,94.51
2019-01-30T09:15:01.276Z,94.77
2019-01-30T09:20:01.558Z,94.86
2019-01-30T09:25:01.856Z,94.73
2019-01-30T09:30:02.135Z,94.54
2019-01-30T09:35:01.410Z,94.63
2019-01-30T09:40:01.760Z,94.99
2019-01-30T09:45:02.037Z,95.41
2019-01-30T09:50:01.304Z,95.63
2019-01-30T09:55:01.606Z,96.04
2019-01-30T10:00:01.919Z,96.62
2019-01-30T10:05:01.236Z,97.34
2019-01-30T10:10:01.629Z,97.2
2019-01-30T10:15:01.927Z,97.44
2019-01-30T10:20:01.257Z,97.56
2019-01-30T10:25:01.520Z,96.78
2019-01-30T10:30:01.817Z,97.03
2019-01-30T10:35:02.131Z,97.1
2019-01-30T10:40:01.402Z,97.1
2019-01-30T10:45:01.696Z,96.7
2019-01-30T10:50:01.992Z,96.44
2019-01-30T10:55:01.373Z,96.12
2019-01-30T11:00:01.669Z,95.79
2019-01-30T11:05:01.953Z,95.67
2019-01-30T11:10:01.275Z,95.67
2019-01-30T11:15:03.362Z,95.84
2019-01-30T11:20:01.691Z,96.24
2019-01-30T11:25:01.991Z,96.14
2019-01-30T11:30:01.282Z,96.22
2019-01-30T11:35:01.619Z,96.53
2019-01-30T11:40:01.930Z,97.16
2019-01-30T11:45:01.230Z,97.03
2019-01-30T11:50:01.526Z,97.31
2019-01-30T11:55:01.841Z,98.39
2019-01-30T12:00:02.097Z,95.12
2019-01-30T12:05:01.346Z,95.75
2019-01-30T12:10:01.590Z,97.04
2019-01-30T12:15:01.893Z,98.31
2019-01-30T12:20:02.142Z,95.73
2019-01-30T12:25:01.409Z,98.22
2019-01-30T12:30:01.707Z,98.73
2019-01-30T12:35:02.013Z,97.18
2019-01-30T12:40:01.296Z,98.31
2019-01-30T12:45:01.553Z,95.64
2019-01-30T12:50:01.806Z,98.4
2019-01-30T12:55:02.090Z,95.86
2019-01-30T13:00:01.362Z,98.49
2019-01-30T13:05:01.646Z,96.07
2019-01-30T13:10:02.036Z,98.71
2019-01-30T13:15:01.332Z,96.31
2019-01-30T13:20:01.624Z,99
2019-01-30T13:25:01.874Z,96.37
2019-01-30T13:30:02.119Z,97.94
2019-01-30T13:35:01.403Z,99.05
2019-01-30T13:40:01.707Z,97.94
2019-01-30T13:45:01.958Z,98.97
2019-01-30T13:50:01.235Z,97.81
2019-01-30T13:55:01.557Z,98.8
2019-01-30T14:00:01.823Z,97.95
2019-01-30T14:05:02.098Z,96.31
2019-01-30T14:10:01.630Z,98.13
2019-01-30T14:15:02.006Z,96.34
2019-01-30T14:20:01.537Z,98.29
2019-01-30T14:25:01.975Z,98.34
2019-01-30T14:30:01.256Z,96.56
2019-01-30T14:35:11.114Z,98.24
2019-01-30T14:40:01.511Z,98.29
2019-01-30T14:45:01.843Z,96.61
2019-01-30T14:50:02.083Z,98.93
2019-01-30T14:55:01.458Z,96.73
2019-01-30T15:00:01.807Z,99.01
2019-01-30T15:05:02.142Z,98.09
2019-01-30T15:10:01.544Z,99.14
2019-01-30T15:15:02.029Z,98.24
2019-01-30T15:20:01.439Z,96.54
2019-01-30T15:25:01.771Z,98.24
2019-01-30T15:30:02.070Z,98.36
2019-01-30T15:35:01.390Z,96.37
2019-01-30T15:40:01.672Z,98.33
2019-01-30T15:45:01.993Z,98.44
2019-01-30T15:50:01.298Z,98.24
2019-01-30T15:55:01.676Z,98.31
2019-01-30T16:00:01.976Z,98.29
2019-01-30T16:05:01.280Z,98.37
2019-01-30T16:10:02.222Z,98.35
2019-01-30T16:15:01.517Z,98.38
2019-01-30T16:20:01.826Z,96.66
2019-01-30T16:25:09.542Z,96.82
2019-01-30T16:30:01.901Z,96.73
2019-01-30T16:35:01.225Z,96.86
2019-01-30T16:40:01.519Z,96.85
2019-01-30T16:45:02.924Z,96.84
2019-01-30T16:50:01.205Z,97.04
2019-01-30T16:55:01.509Z,97.1
2019-01-30T17:00:01.793Z,98.83
2019-01-30T17:05:02.077Z,98.7
2019-01-30T17:10:01.348Z,98.83
2019-01-30T17:15:01.827Z,98.81
2019-01-30T17:20:02.109Z,98.76
2019-01-30T17:25:01.345Z,98.73
2019-01-30T17:30:01.600Z,98.77
2019-01-30T17:35:01.900Z,98.66
2019-01-30T17:40:03.034Z,98.68
2019-01-30T17:45:01.283Z,98.74
2019-01-30T17:50:01.605Z,98.56
2019-01-30T17:55:04.600Z,98.61
2019-01-30T18:00:01.885Z,98.7
2019-01-30T18:05:01.332Z,98.63
2019-01-30T18:10:01.658Z,98.67
2019-01-30T18:15:01.963Z,98.76
2019-01-30T18:20:01.499Z,98.79
2019-01-30T18:25:01.833Z,97.21
2019-01-30T18:30:02.069Z,97.19
2019-01-30T18:35:01.341Z,97.28
2019-01-30T18:40:01.649Z,97.15
2019-01-30T18:45:01.945Z,97.2
2019-01-30T18:50:01.214Z,97.21
2019-01-30T18:55:01.495Z,97.05
2019-01-30T19:00:01.783Z,97.21
2019-01-30T19:05:02.055Z,97.22
2019-01-30T19:10:01.300Z,99
2019-01-30T19:15:01.810Z,99.13
2019-01-30T19:20:02.111Z,99.23
2019-01-30T19:25:01.377Z,99.26
2019-01-30T19:30:04.594Z,99.28
2019-01-30T19:35:01.926Z,99.35
2019-01-30T19:40:01.221Z,99.41
2019-01-30T19:45:01.510Z,99.55
2019-01-30T19:50:01.769Z,99.43
2019-01-30T19:55:02.089Z,99.37
2019-01-30T20:00:01.382Z,99.35
2019-01-30T20:05:01.703Z,99.24
2019-01-30T20:10:01.999Z,99.13
2019-01-30T20:15:01.282Z,98.93
2019-01-30T20:20:01.591Z,98.77
2019-01-30T20:25:01.900Z,98.53
2019-01-30T20:30:02.145Z,98.4
2019-01-30T20:35:01.376Z,96.61
2019-01-30T20:40:01.597Z,98.24
2019-01-30T20:45:01.824Z,98.12
2019-01-30T20:50:02.050Z,96.32
2019-01-30T20:55:01.271Z,98.96
2019-01-30T21:00:01.518Z,96.46
2019-01-30T21:05:01.775Z,98.97
2019-01-30T21:10:02.043Z,96.44
2019-01-30T21:15:01.410Z,97.88
2019-01-30T21:20:01.662Z,98.76
2019-01-30T21:25:01.902Z,97.71
2019-01-30T21:30:02.145Z,98.64
2019-01-30T21:35:01.374Z,97.55
2019-01-30T21:40:01.605Z,98.59
2019-01-30T21:45:01.874Z,97.37
2019-01-30T21:50:02.108Z,98.45
2019-01-30T21:55:01.330Z,97.55
2019-01-30T22:00:01.608Z,98.46
2019-01-30T22:05:01.859Z,95.78
2019-01-30T22:10:02.102Z,97.34
2019-01-30T22:15:01.503Z,98.78
2019-01-30T22:20:01.762Z,98.42
2019-01-30T22:25:01.992Z,95.44
2019-01-30T22:30:01.235Z,96.66
2019-01-30T22:35:01.488Z,96.57
2019-01-30T22:40:01.759Z,95.13
2019-01-30T22:45:01.991Z,98.46
2019-01-30T22:50:01.373Z,98.13
2019-01-30T22:55:01.636Z,97.66
2019-01-30T23:00:01.902Z,96.21
2019-01-30T23:05:02.129Z,98.22
2019-01-30T23:10:01.390Z,97.18
2019-01-30T23:15:01.682Z,97.46
2019-01-30T23:20:01.970Z,97.15
2019-01-30T23:25:01.221Z,97.22
2019-01-30T23:30:01.522Z,97.43
2019-01-30T23:35:01.823Z,97.53
2019-01-30T23:40:02.068Z,97.68
2019-01-30T23:45:01.323Z,97.71
2019-01-30T23:50:01.617Z,97.86
2019-01-30T23:55:01.888Z,97.91
